Stolt Shearwater — ZCRD9 — position and weather

sailwx.info

Track history (hours):
 
Tides and Currents Weather Stations Pressure Air Temp Water Temp Dewpoint Dewpoint Depression Visibility Wind Speed Wind Dir Waves Ship Positions

Stolt Shearwater

Last reported at 2014-Oct-25 18:24 UTC. Time now 2014-Oct-25 19:02 UTC.
Position N 51°52' E 004°16'.

Length 96 m; draft 5.8 m.

Type: Ship (hazmat cat B). MMSI: 319402000.

Date/timePositionNaut miles runAvg speedWind from/ knotsBaromVisibWave heightAir tempDewpointWater temp
2014-Oct-25 18:24N 51°52' E 004°16'0 0.0
2014-Oct-25 17:33N 51°52' E 004°16'0 0.0
2014-Oct-25 16:33N 51°52' E 004°16'0 0.0
2014-Oct-25 15:30N 51°52' E 004°16'0 0.0
2014-Oct-25 14:30N 51°52' E 004°16'0 0.0
2014-Oct-25 13:27N 51°52' E 004°16'0 0.0
2014-Oct-25 12:27N 51°52' E 004°16'0 0.0
2014-Oct-25 11:33N 51°52' E 004°16'0 0.0
2014-Oct-25 10:33N 51°52' E 004°16'0 0.0
2014-Oct-25 09:33N 51°52' E 004°16'0 0.0
2014-Oct-25 08:30N 51°52' E 004°16'0 0.0
2014-Oct-25 07:30N 51°52' E 004°16'0 0.0
2014-Oct-25 06:33N 51°52' E 004°16'0 0.0
2014-Oct-25 05:30N 51°52' E 004°16'0 0.0
2014-Oct-25 04:30N 51°52' E 004°16'0 0.0
2014-Oct-25 03:33N 51°52' E 004°16'0 0.5
2014-Oct-25 02:33N 51°53' E 004°17'1 1.0
2014-Oct-25 01:25N 51°53' E 004°18'0 0.0
2014-Oct-25 00:31N 51°53' E 004°18'0 0.0
2014-Oct-24 23:31N 51°53' E 004°18'0 0.0
2014-Oct-24 22:25N 51°53' E 004°18'0 0.0
2014-Oct-24 20:19N 51°53' E 004°18'0 0.0
2014-Oct-24 19:25N 51°53' E 004°18'0 0.0
2014-Oct-24 18:25N 51°53' E 004°18'0 0.0
2014-Oct-24 17:25N 51°53' E 004°18'0 0.0
2014-Oct-24 16:31N 51°53' E 004°18'0 0.0
2014-Oct-24 15:28N 51°53' E 004°18'0 0.0
2014-Oct-24 14:10N 51°53' E 004°18'0 0.0
2014-Oct-24 13:13N 51°53' E 004°18'0 0.0
2014-Oct-24 12:31N 51°53' E 004°18'2 1.7
2014-Oct-24 11:33N 51°54' E 004°17'9 8.8
2014-Oct-24 10:33N 51°59' E 004°05'9 9.3
2014-Oct-24 09:33N 52°02' E 003°50'8 7.6
2014-Oct-24 08:33N 52°09' E 003°46'9 9.3
2014-Oct-24 07:33N 52°18' E 003°47'37 7.3
2014-Oct-24 02:32N 52°54' E 003°59'6 5.8
2014-Oct-24 01:32N 52°59' E 004°04'41 7.9
2014-Oct-23 20:20N 53°30' E 004°48'6 7.8
2014-Oct-23 19:33N 53°32' E 004°58'7 7.5
2014-Oct-23 18:33N 53°35' E 005°10'7 7.4
2014-Oct-23 17:33N 53°38' E 005°22'7 7.3
2014-Oct-23 16:33N 53°40' E 005°33'8 8.1
2014-Oct-23 15:33N 53°43' E 005°46'9 9.4
2014-Oct-23 14:33N 53°46' E 006°01'53 8.6
2014-Oct-23 08:21N 53°60' E 007°29'5 6.8
2014-Oct-23 07:33N 54°01' E 007°38'8 7.7
2014-Oct-23 06:33N 54°01' E 007°51'8 8.6
2014-Oct-23 05:33N 54°01' E 008°05'10 9.9
2014-Oct-23 04:33N 53°60' E 008°22'1313.3
2014-Oct-23 03:33N 53°54' E 008°42'1312.6
2014-Oct-23 02:32N 53°52' E 009°03'13 9.3
2014-Oct-23 01:08N 53°47' E 009°23'5 8.9
2014-Oct-23 00:33N 53°43' E 009°29'4 0.1
2014-Oct-21 10:08N 53°39' E 009°31'3 5.4
2014-Oct-21 09:34N 53°42' E 009°29'1313.3
2014-Oct-21 08:33N 53°52' E 009°15'3 3.0
2014-Oct-21 07:30N 53°53' E 009°10'0 0.1
2014-Oct-21 06:30N 53°53' E 009°10'0 0.0
2014-Oct-21 05:27N 53°53' E 009°10'0 0.0
2014-Oct-21 04:33N 53°53' E 009°10'0 0.0
2014-Oct-21 03:33N 53°53' E 009°10'0 0.0
2014-Oct-21 02:33N 53°53' E 009°10'0 0.0
2014-Oct-21 01:33N 53°53' E 009°10'0 0.1
2014-Oct-21 00:33N 53°53' E 009°10'0 0.1
2014-Oct-20 23:30N 53°53' E 009°10'0 0.0
2014-Oct-20 22:33N 53°53' E 009°10'0 0.0
2014-Oct-20 21:33N 53°53' E 009°10'0 0.0
2014-Oct-20 20:33N 53°53' E 009°10'0 0.0
2014-Oct-20 19:33N 53°53' E 009°10'0 0.3
2014-Oct-20 18:33N 53°53' E 009°09'10 9.6
2014-Oct-20 17:33N 53°50' E 008°53'9 8.6
2014-Oct-20 16:33N 53°55' E 008°41'9 8.9
2014-Oct-20 15:34N 53°59' E 008°27'1211.4
2014-Oct-20 14:33N 53°60' E 008°08'1110.8
2014-Oct-20 13:33N 54°04' E 007°51'1110.5
2014-Oct-20 12:33N 54°11' E 007°37'2 2.0
2014-Oct-20 11:33N 54°13' E 007°36'4 4.0
2014-Oct-20 10:34N 54°10' E 007°41'4 3.8
2014-Oct-20 09:33N 54°08' E 007°46'8 7.8
2014-Oct-20 08:33N 54°12' E 007°35'1211.8
2014-Oct-20 07:33N 54°20' E 007°21'9 9.1
2014-Oct-20 06:34N 54°29' E 007°23'8 8.1
2014-Oct-20 05:34N 54°36' E 007°16'7 7.0
2014-Oct-20 04:33N 54°43' E 007°21'7 7.0
2014-Oct-20 03:33N 54°49' E 007°26'1111.3
2014-Oct-20 02:33N 54°55' E 007°10'1111.2
2014-Oct-20 01:34N 55°02' E 006°54'7 7.2
2014-Oct-20 00:33N 55°09' E 006°50'7 6.9
2014-Oct-19 23:33N 55°15' E 006°55'7 6.5
2014-Oct-19 22:33N 55°21' E 006°58'7 6.9
2014-Oct-19 21:33N 55°28' E 007°01'7 6.8
2014-Oct-19 20:33N 55°34' E 007°04'6 6.4
2014-Oct-19 19:33N 55°40' E 007°08'140 8.2
2014-Oct-19 02:27N 57°48' E 008°53'78 9.7
2014-Oct-18 18:30N 58°49' E 010°24'8 8.4
2014-Oct-18 17:33N 58°55' E 010°34'10 9.6
2014-Oct-18 16:34N 59°02' E 010°46'7 7.0
2014-Oct-18 15:33N 59°05' E 010°58'10 9.7
2014-Oct-18 14:34N 59°15' E 011°01'2 0.1
2014-Oct-17 20:33N 59°14' E 010°59'3 2.6
2014-Oct-17 19:31N 59°11' E 010°57'0 0.0
2014-Oct-17 18:31N 59°11' E 010°57'0 0.0
2014-Oct-17 17:31N 59°11' E 010°57'0 0.0
2014-Oct-17 16:31N 59°11' E 010°57'0 0.0
2014-Oct-17 15:31N 59°11' E 010°57'0 0.0
2014-Oct-17 14:33N 59°11' E 010°57'4 4.0
2014-Oct-17 13:33N 59°07' E 010°58'7 6.7
2014-Oct-17 12:33N 59°01' E 010°54'7 6.8
2014-Oct-17 11:33N 58°59' E 010°41'9 9.0
2014-Oct-17 10:33N 58°53' E 010°29'  
Track history (hours):
 
Tides and Currents Weather Stations Pressure Air Temp Water Temp Dewpoint Dewpoint Depression Visibility Wind Speed Wind Dir Waves Ship Positions

Stolt Shearwater

Last reported at 2014-Oct-25 18:24 UTC. Time now 2014-Oct-25 19:02 UTC.
Position N 51°52' E 004°16'.

Length 96 m; draft 5.8 m.

Type: Ship (hazmat cat B). MMSI: 319402000.

Date/timePositionNaut miles runAvg speedWind from/ knotsBaromVisibWave heightAir tempDewpointWater temp
2014-Oct-25 18:24N 51°52' E 004°16'0 0.0
2014-Oct-25 17:33N 51°52' E 004°16'0 0.0
2014-Oct-25 16:33N 51°52' E 004°16'0 0.0
2014-Oct-25 15:30N 51°52' E 004°16'0 0.0
2014-Oct-25 14:30N 51°52' E 004°16'0 0.0
2014-Oct-25 13:27N 51°52' E 004°16'0 0.0
2014-Oct-25 12:27N 51°52' E 004°16'0 0.0
2014-Oct-25 11:33N 51°52' E 004°16'0 0.0
2014-Oct-25 10:33N 51°52' E 004°16'0 0.0
2014-Oct-25 09:33N 51°52' E 004°16'0 0.0
2014-Oct-25 08:30N 51°52' E 004°16'0 0.0
2014-Oct-25 07:30N 51°52' E 004°16'0 0.0
2014-Oct-25 06:33N 51°52' E 004°16'0 0.0
2014-Oct-25 05:30N 51°52' E 004°16'0 0.0
2014-Oct-25 04:30N 51°52' E 004°16'0 0.0
2014-Oct-25 03:33N 51°52' E 004°16'0 0.5
2014-Oct-25 02:33N 51°53' E 004°17'1 1.0
2014-Oct-25 01:25N 51°53' E 004°18'0 0.0
2014-Oct-25 00:31N 51°53' E 004°18'0 0.0
2014-Oct-24 23:31N 51°53' E 004°18'0 0.0
2014-Oct-24 22:25N 51°53' E 004°18'0 0.0
2014-Oct-24 20:19N 51°53' E 004°18'0 0.0
2014-Oct-24 19:25N 51°53' E 004°18'0 0.0
2014-Oct-24 18:25N 51°53' E 004°18'0 0.0
2014-Oct-24 17:25N 51°53' E 004°18'0 0.0
2014-Oct-24 16:31N 51°53' E 004°18'0 0.0
2014-Oct-24 15:28N 51°53' E 004°18'0 0.0
2014-Oct-24 14:10N 51°53' E 004°18'0 0.0
2014-Oct-24 13:13N 51°53' E 004°18'0 0.0
2014-Oct-24 12:31N 51°53' E 004°18'2 1.7
2014-Oct-24 11:33N 51°54' E 004°17'9 8.8
2014-Oct-24 10:33N 51°59' E 004°05'9 9.3
2014-Oct-24 09:33N 52°02' E 003°50'8 7.6
2014-Oct-24 08:33N 52°09' E 003°46'9 9.3
2014-Oct-24 07:33N 52°18' E 003°47'37 7.3
2014-Oct-24 02:32N 52°54' E 003°59'6 5.8
2014-Oct-24 01:32N 52°59' E 004°04'41 7.9
2014-Oct-23 20:20N 53°30' E 004°48'6 7.8
2014-Oct-23 19:33N 53°32' E 004°58'7 7.5
2014-Oct-23 18:33N 53°35' E 005°10'7 7.4
2014-Oct-23 17:33N 53°38' E 005°22'7 7.3
2014-Oct-23 16:33N 53°40' E 005°33'8 8.1
2014-Oct-23 15:33N 53°43' E 005°46'9 9.4
2014-Oct-23 14:33N 53°46' E 006°01'53 8.6
2014-Oct-23 08:21N 53°60' E 007°29'5 6.8
2014-Oct-23 07:33N 54°01' E 007°38'8 7.7
2014-Oct-23 06:33N 54°01' E 007°51'8 8.6
2014-Oct-23 05:33N 54°01' E 008°05'10 9.9
2014-Oct-23 04:33N 53°60' E 008°22'1313.3
2014-Oct-23 03:33N 53°54' E 008°42'1312.6
2014-Oct-23 02:32N 53°52' E 009°03'13 9.3
2014-Oct-23 01:08N 53°47' E 009°23'5 8.9
2014-Oct-23 00:33N 53°43' E 009°29'4 0.1
2014-Oct-21 10:08N 53°39' E 009°31'3 5.4
2014-Oct-21 09:34N 53°42' E 009°29'1313.3
2014-Oct-21 08:33N 53°52' E 009°15'3 3.0
2014-Oct-21 07:30N 53°53' E 009°10'0 0.1
2014-Oct-21 06:30N 53°53' E 009°10'0 0.0
2014-Oct-21 05:27N 53°53' E 009°10'0 0.0
2014-Oct-21 04:33N 53°53' E 009°10'0 0.0
2014-Oct-21 03:33N 53°53' E 009°10'0 0.0
2014-Oct-21 02:33N 53°53' E 009°10'0 0.0
2014-Oct-21 01:33N 53°53' E 009°10'0 0.1
2014-Oct-21 00:33N 53°53' E 009°10'0 0.1
2014-Oct-20 23:30N 53°53' E 009°10'0 0.0
2014-Oct-20 22:33N 53°53' E 009°10'0 0.0
2014-Oct-20 21:33N 53°53' E 009°10'0 0.0
2014-Oct-20 20:33N 53°53' E 009°10'0 0.0
2014-Oct-20 19:33N 53°53' E 009°10'0 0.3
2014-Oct-20 18:33N 53°53' E 009°09'10 9.6
2014-Oct-20 17:33N 53°50' E 008°53'9 8.6
2014-Oct-20 16:33N 53°55' E 008°41'9 8.9
2014-Oct-20 15:34N 53°59' E 008°27'1211.4
2014-Oct-20 14:33N 53°60' E 008°08'1110.8
2014-Oct-20 13:33N 54°04' E 007°51'1110.5
2014-Oct-20 12:33N 54°11' E 007°37'2 2.0
2014-Oct-20 11:33N 54°13' E 007°36'4 4.0
2014-Oct-20 10:34N 54°10' E 007°41'4 3.8
2014-Oct-20 09:33N 54°08' E 007°46'8 7.8
2014-Oct-20 08:33N 54°12' E 007°35'1211.8
2014-Oct-20 07:33N 54°20' E 007°21'9 9.1
2014-Oct-20 06:34N 54°29' E 007°23'8 8.1
2014-Oct-20 05:34N 54°36' E 007°16'7 7.0
2014-Oct-20 04:33N 54°43' E 007°21'7 7.0
2014-Oct-20 03:33N 54°49' E 007°26'1111.3
2014-Oct-20 02:33N 54°55' E 007°10'1111.2
2014-Oct-20 01:34N 55°02' E 006°54'7 7.2
2014-Oct-20 00:33N 55°09' E 006°50'7 6.9
2014-Oct-19 23:33N 55°15' E 006°55'7 6.5
2014-Oct-19 22:33N 55°21' E 006°58'7 6.9
2014-Oct-19 21:33N 55°28' E 007°01'7 6.8
2014-Oct-19 20:33N 55°34' E 007°04'6 6.4
2014-Oct-19 19:33N 55°40' E 007°08'140 8.2
2014-Oct-19 02:27N 57°48' E 008°53'78 9.7
2014-Oct-18 18:30N 58°49' E 010°24'8 8.4
2014-Oct-18 17:33N 58°55' E 010°34'10 9.6
2014-Oct-18 16:34N 59°02' E 010°46'7 7.0
2014-Oct-18 15:33N 59°05' E 010°58'10 9.7
2014-Oct-18 14:34N 59°15' E 011°01'2 0.1
2014-Oct-17 20:33N 59°14' E 010°59'3 2.6
2014-Oct-17 19:31N 59°11' E 010°57'0 0.0
2014-Oct-17 18:31N 59°11' E 010°57'0 0.0
2014-Oct-17 17:31N 59°11' E 010°57'0 0.0
2014-Oct-17 16:31N 59°11' E 010°57'0 0.0
2014-Oct-17 15:31N 59°11' E 010°57'0 0.0
2014-Oct-17 14:33N 59°11' E 010°57'4 4.0
2014-Oct-17 13:33N 59°07' E 010°58'7 6.7
2014-Oct-17 12:33N 59°01' E 010°54'7 6.8
2014-Oct-17 11:33N 58°59' E 010°41'9 9.0
2014-Oct-17 10:33N 58°53' E 010°29'  

Dump ship's entire track history